createdAt,value
2022-12-13T00:04:19.584Z,8.90
2022-12-13T00:09:19.488Z,7.77
2022-12-13T00:14:19.229Z,9.10
2022-12-13T00:19:17.882Z,9.20
2022-12-13T00:24:16.045Z,8.10
2022-12-13T00:29:14.268Z,9.40
2022-12-13T00:34:13.709Z,8.40
2022-12-13T00:39:13.853Z,11.53
2022-12-13T00:44:13.178Z,10.37
2022-12-13T00:49:13.777Z,10.63
2022-12-13T00:54:12.400Z,11.97
2022-12-13T00:59:14.265Z,9.73
2022-12-13T01:04:13.801Z,10.40
2022-12-13T01:09:18.084Z,11.37
2022-12-13T01:14:16.340Z,13.07
2022-12-13T01:19:15.904Z,11.63
2022-12-13T01:24:14.618Z,12.10
2022-12-13T01:29:12.729Z,12.10
2022-12-13T01:34:12.897Z,12.97
2022-12-13T01:39:15.746Z,11.77
2022-12-13T01:44:51.063Z,11.83
2022-12-13T01:49:49.529Z,11.50
2022-12-13T01:54:53.522Z,10.43
2022-12-13T01:59:52.512Z,11.90
2022-12-13T02:04:56.137Z,12.33
2022-12-13T02:10:00.112Z,13.43
2022-12-13T02:15:00.472Z,10.40
2022-12-13T02:20:31.044Z,10.93
2022-12-13T02:25:55.086Z,11.00
2022-12-13T02:30:59.614Z,10.40
2022-12-13T02:36:07.549Z,12.87
2022-12-13T02:41:13.993Z,12.00
2022-12-13T02:46:15.318Z,11.60
2022-12-13T02:51:15.427Z,12.23
2022-12-13T02:56:13.545Z,12.27
2022-12-13T03:01:29.950Z,12.20
2022-12-13T03:06:39.745Z,12.70
2022-12-13T03:12:16.299Z,12.33
2022-12-13T03:17:19.449Z,12.23
2022-12-13T03:22:17.731Z,12.80
2022-12-13T03:27:15.771Z,12.33
2022-12-13T03:32:15.165Z,11.80
2022-12-13T03:37:13.772Z,12.13
2022-12-13T03:42:12.089Z,12.57
2022-12-13T03:47:10.107Z,12.10
2022-12-13T03:52:09.499Z,12.23
2022-12-13T03:57:07.491Z,11.57
2022-12-13T04:02:05.586Z,11.53
2022-12-13T04:07:03.661Z,11.80
2022-12-13T04:12:20.331Z,11.20
2022-12-13T04:17:18.383Z,12.63
2022-12-13T04:22:21.713Z,11.80
2022-12-13T04:27:24.155Z,11.10
2022-12-13T04:32:26.956Z,10.70
2022-12-13T04:37:25.548Z,10.40
2022-12-13T04:42:25.003Z,11.07
2022-12-13T04:47:23.022Z,10.60
2022-12-13T04:52:21.982Z,10.00
2022-12-13T04:57:20.858Z,12.47
2022-12-13T05:02:23.439Z,10.70
2022-12-13T05:07:21.955Z,10.60
2022-12-13T05:12:23.069Z,10.50
2022-12-13T05:17:23.216Z,10.00
2022-12-13T05:22:21.456Z,11.63
2022-12-13T05:27:23.933Z,8.87
2022-12-13T05:32:25.359Z,11.00
2022-12-13T05:37:23.445Z,11.23
2022-12-13T05:42:21.492Z,10.20
2022-12-13T05:47:20.555Z,10.27
2022-12-13T05:52:22.044Z,10.07
2022-12-13T05:57:28.710Z,10.10
2022-12-13T06:02:27.056Z,10.40
2022-12-13T06:07:26.461Z,10.60
2022-12-13T06:12:31.740Z,12.10
2022-12-13T06:17:33.083Z,10.57
2022-12-13T06:22:33.253Z,11.70
2022-12-13T06:27:31.311Z,10.30
2022-12-13T06:32:29.326Z,11.67
2022-12-13T06:37:27.562Z,12.57
2022-12-13T06:42:26.939Z,11.57
2022-12-13T06:47:31.501Z,13.37
2022-12-13T06:52:30.512Z,10.90
2022-12-13T06:57:29.918Z,12.57
2022-12-13T07:02:28.041Z,12.30
2022-12-13T07:07:26.997Z,12.97
2022-12-13T07:12:25.243Z,12.90
2022-12-13T07:17:32.798Z,11.70
2022-12-13T07:22:34.750Z,12.33
2022-12-13T07:27:34.141Z,13.37
2022-12-13T07:32:33.543Z,12.90
2022-12-13T07:37:31.574Z,13.93
2022-12-13T07:42:29.581Z,14.10
2022-12-13T07:47:30.544Z,13.63
2022-12-13T07:52:30.290Z,12.50
2022-12-13T07:57:28.316Z,15.10
2022-12-13T08:02:26.411Z,13.67
2022-12-13T08:07:24.408Z,15.20
2022-12-13T08:12:23.776Z,12.97
2022-12-13T08:17:22.299Z,14.57
2022-12-13T08:22:24.028Z,14.10
2022-12-13T08:27:23.815Z,13.57
2022-12-13T08:32:22.368Z,13.67
2022-12-13T08:37:20.377Z,13.30
2022-12-13T08:42:20.526Z,13.37
2022-12-13T08:47:24.256Z,12.70
2022-12-13T08:52:23.961Z,12.03
2022-12-13T08:57:22.121Z,12.70
2022-12-13T09:02:21.717Z,11.20
2022-12-13T09:07:19.746Z,12.87
2022-12-13T09:12:30.038Z,11.50
2022-12-13T09:17:36.904Z,10.60
2022-12-13T09:22:35.536Z,11.20
2022-12-13T09:27:39.427Z,10.93
2022-12-13T09:32:39.546Z,10.63
2022-12-13T09:37:42.538Z,11.33
2022-12-13T09:42:56.518Z,10.87
2022-12-13T09:48:11.443Z,11.40
2022-12-13T09:53:21.359Z,10.63
2022-12-13T09:58:24.533Z,10.60
2022-12-13T10:03:25.978Z,11.87
2022-12-13T10:08:36.809Z,10.60
2022-12-13T10:13:41.565Z,11.27
2022-12-13T10:18:43.823Z,11.57
2022-12-13T10:24:22.453Z,10.43
2022-12-13T10:29:04.205Z,10.07
2022-12-13T10:34:03.781Z,11.20
2022-12-13T10:39:01.907Z,12.23
2022-12-13T10:44:17.044Z,10.40
2022-12-13T10:49:20.810Z,11.30
2022-12-13T10:54:25.585Z,10.53
2022-12-13T10:59:36.529Z,9.90
2022-12-13T11:04:36.756Z,10.10
2022-12-13T11:09:38.761Z,9.60
2022-12-13T11:14:43.570Z,9.57
2022-12-13T11:19:50.008Z,9.77
2022-12-13T11:24:52.311Z,10.00
2022-12-13T11:30:02.782Z,11.27
2022-12-13T11:35:09.173Z,10.50
2022-12-13T11:40:15.542Z,9.70
2022-12-13T11:45:22.536Z,8.97
2022-12-13T11:50:33.006Z,10.60
2022-12-13T11:55:38.786Z,8.83
2022-12-13T12:00:39.953Z,9.03
2022-12-13T12:05:44.997Z,8.80
2022-12-13T12:10:49.655Z,8.50
2022-12-13T12:15:55.470Z,8.27
2022-12-13T12:21:07.685Z,8.70
2022-12-13T12:26:11.470Z,8.67
2022-12-13T12:31:18.896Z,9.30
2022-12-13T12:36:30.742Z,8.50
2022-12-13T12:41:52.397Z,8.10
2022-12-13T12:52:34.800Z,8.57
2022-12-13T12:57:42.018Z,9.23
2022-12-13T13:02:45.864Z,10.50
2022-12-13T13:07:51.586Z,9.63
2022-12-13T13:12:50.188Z,10.13
2022-12-13T13:17:48.493Z,9.83
2022-12-13T13:23:03.875Z,8.90
2022-12-13T13:28:14.992Z,7.83
2022-12-13T13:33:46.159Z,8.27
2022-12-13T13:38:55.393Z,6.30
2022-12-13T13:44:02.217Z,8.77
2022-12-13T13:49:05.169Z,9.40
2022-12-13T13:54:37.416Z,10.10
2022-12-13T14:00:11.913Z,11.40
2022-12-13T14:05:47.696Z,10.57
2022-12-13T14:10:56.768Z,10.63
2022-12-13T14:16:35.005Z,11.33
2022-12-13T14:21:46.783Z,9.87
2022-12-13T14:27:07.914Z,10.67
2022-12-13T14:32:26.398Z,11.33
2022-12-13T14:37:28.682Z,10.40
2022-12-13T14:42:30.651Z,9.90
2022-12-13T14:47:28.884Z,10.07
2022-12-13T14:52:30.254Z,10.60
2022-12-13T14:57:31.995Z,11.07
2022-12-13T15:02:32.431Z,11.20
2022-12-13T15:07:33.627Z,12.23
2022-12-13T15:12:33.569Z,12.07
2022-12-13T15:17:34.282Z,13.60
2022-12-13T15:22:36.554Z,13.70
2022-12-13T15:27:41.948Z,13.27
2022-12-13T15:33:05.048Z,11.43
2022-12-13T15:38:03.313Z,13.10
2022-12-13T15:43:02.824Z,12.30
2022-12-13T15:48:00.965Z,12.13
2022-12-13T15:53:02.426Z,12.80
2022-12-13T15:58:02.322Z,12.50
2022-12-13T16:03:09.941Z,12.83
2022-12-13T16:08:20.122Z,14.30
2022-12-13T16:13:27.081Z,12.63
2022-12-13T16:18:27.418Z,14.37
2022-12-13T16:23:27.066Z,13.87
2022-12-13T16:28:27.103Z,13.50
2022-12-13T16:33:27.919Z,14.10
2022-12-13T16:38:27.405Z,13.20
2022-12-13T16:43:33.680Z,16.17
2022-12-13T16:48:32.749Z,13.30
2022-12-13T16:53:30.889Z,14.60
2022-12-13T16:58:30.455Z,15.13
2022-12-13T17:03:28.920Z,14.20
2022-12-13T17:08:27.751Z,15.87
2022-12-13T17:13:26.331Z,15.00
2022-12-13T17:18:26.122Z,15.57
2022-12-13T17:23:24.134Z,14.10
2022-12-13T17:28:22.157Z,14.90
2022-12-13T17:33:20.217Z,15.73
2022-12-13T17:38:19.587Z,14.67
2022-12-13T17:43:28.678Z,15.63
2022-12-13T17:48:39.098Z,15.97
2022-12-13T17:53:41.054Z,13.03
2022-12-13T17:58:39.940Z,15.17
2022-12-13T18:03:38.220Z,15.17
2022-12-13T18:08:36.785Z,14.03
2022-12-13T18:13:36.216Z,14.33
2022-12-13T18:18:34.568Z,13.63
2022-12-13T18:23:33.109Z,16.03
2022-12-13T18:28:31.857Z,15.80
2022-12-13T18:33:31.459Z,14.33
2022-12-13T18:38:36.217Z,13.47
2022-12-13T18:43:35.143Z,15.13
2022-12-13T18:48:34.826Z,14.37
2022-12-13T18:53:34.076Z,15.67
2022-12-13T18:58:32.909Z,16.10
2022-12-13T19:03:31.587Z,16.63
2022-12-13T19:08:31.623Z,15.93
2022-12-13T19:13:30.479Z,16.33
2022-12-13T19:18:28.958Z,16.53
2022-12-13T19:23:27.289Z,14.60
2022-12-13T19:28:26.994Z,15.10
2022-12-13T19:33:25.382Z,16.23
2022-12-13T19:38:23.614Z,17.20
2022-12-13T19:43:22.153Z,16.63
2022-12-13T19:48:21.560Z,17.20
2022-12-13T19:53:19.610Z,16.70
2022-12-13T19:58:17.648Z,17.37
2022-12-13T20:03:15.705Z,16.53
2022-12-13T20:08:16.789Z,17.87
2022-12-13T20:13:14.826Z,16.73
2022-12-13T20:18:12.861Z,16.80
2022-12-13T20:23:10.913Z,16.60
2022-12-13T20:28:15.914Z,16.47
2022-12-13T20:33:14.307Z,16.70
2022-12-13T20:38:12.354Z,16.53
2022-12-13T20:43:11.799Z,15.20
2022-12-13T20:48:09.847Z,15.90
2022-12-13T20:53:07.857Z,15.03
2022-12-13T20:58:05.919Z,15.83
2022-12-13T21:03:05.646Z,14.13
2022-12-13T21:08:21.117Z,16.80
2022-12-13T21:13:19.142Z,17.50
2022-12-13T21:18:18.724Z,15.70
2022-12-13T21:23:16.782Z,16.00
2022-12-13T21:28:14.803Z,16.47
2022-12-13T21:33:12.848Z,16.30
2022-12-13T21:38:12.242Z,15.27
2022-12-13T21:43:10.308Z,15.10
2022-12-13T21:48:08.609Z,16.67
2022-12-13T21:53:06.700Z,14.57
2022-12-13T21:58:23.813Z,16.30
2022-12-13T22:03:21.988Z,15.50
2022-12-13T22:08:20.042Z,15.63
2022-12-13T22:13:19.468Z,15.67
2022-12-13T22:18:17.541Z,17.40
2022-12-13T22:23:15.581Z,16.47
2022-12-13T22:28:13.626Z,17.23
2022-12-13T22:33:12.999Z,16.40
2022-12-13T22:38:11.017Z,15.50
2022-12-13T22:43:09.062Z,17.07
2022-12-13T22:48:07.474Z,19.00
2022-12-13T22:53:06.855Z,19.03
2022-12-13T22:58:05.041Z,17.67
2022-12-13T23:03:03.133Z,17.30
2022-12-13T23:08:01.187Z,19.10
2022-12-13T23:13:03.517Z,18.73
2022-12-13T23:18:01.499Z,19.07
2022-12-13T23:22:59.737Z,16.63
2022-12-13T23:27:57.806Z,16.70
2022-12-13T23:32:58.219Z,17.23
2022-12-13T23:37:56.226Z,17.20
2022-12-13T23:42:54.250Z,17.87
2022-12-13T23:47:52.289Z,15.83
2022-12-13T23:52:51.646Z,16.00
2022-12-13T23:57:50.767Z,15.43
